Time;durP1;ratioP1;P1;durP2;ratioP2;P2;SDS_P1;SDS_P2;PMS_P1;PMS_P2;Temp;Humidity;BMP_temperature;BMP_pressure;BME280_temperature;BME280_humidity;BME280_pressure;Samples;Min_cycle;Max_cycle;Signal;HPM_P1;HPM_P2
2022/07/01 00:01:58;;;;;;;2.03;0.88;;;15.10;99.90;;;;;;4898839;29;20048;-74
2022/07/01 00:04:26;;;;;;;3.58;0.57;;;15.10;99.90;;;;;;4900149;29;20512;-73
2022/07/01 00:06:56;;;;;;;3.83;0.80;;;15.10;99.90;;;;;;4899810;29;20056;-74
2022/07/01 00:09:22;;;;;;;1.80;1.00;;;15.10;99.90;;;;;;4899792;29;20089;-73
2022/07/01 00:11:48;;;;;;;2.53;0.70;;;15.10;99.90;;;;;;4900065;29;20160;-73
2022/07/01 00:14:14;;;;;;;4.15;0.70;;;15.10;99.90;;;;;;4898891;29;20048;-74
2022/07/01 00:16:40;;;;;;;2.65;0.60;;;15.10;99.90;;;;;;4899640;29;20084;-74
2022/07/01 00:19:06;;;;;;;2.60;0.73;;;15.10;99.90;;;;;;4898118;29;20053;-74
2022/07/01 00:21:32;;;;;;;2.83;0.60;;;15.10;99.90;;;;;;4899552;29;20096;-72
2022/07/01 00:23:58;;;;;;;3.30;0.70;;;15.10;99.90;;;;;;4899872;29;20132;-73
2022/07/01 00:26:24;;;;;;;4.78;0.70;;;15.10;99.90;;;;;;4899739;29;20478;-73
2022/07/01 00:28:50;;;;;;;1.23;0.50;;;15.10;99.90;;;;;;4898316;29;20055;-73
2022/07/01 00:31:15;;;;;;;1.40;0.55;;;15.10;99.90;;;;;;4899443;29;20104;-74
2022/07/01 00:33:41;;;;;;;4.15;0.80;;;15.10;99.90;;;;;;4898505;29;20410;-74
2022/07/01 00:36:07;;;;;;;1.92;0.65;;;15.10;99.90;;;;;;4882555;29;20127;-74
2022/07/01 00:38:33;;;;;;;4.13;0.73;;;15.10;99.90;;;;;;4899606;29;20051;-73
2022/07/01 00:40:58;;;;;;;2.28;0.50;;;15.10;99.90;;;;;;4898338;29;20147;-71
2022/07/01 00:43:24;;;;;;;4.60;0.60;;;15.10;99.90;;;;;;4899677;29;20472;-73
2022/07/01 00:45:51;;;;;;;4.13;0.65;;;15.10;99.90;;;;;;4898385;29;20502;-73
2022/07/01 00:48:19;;;;;;;2.25;0.60;;;15.10;99.90;;;;;;4898637;29;20052;-72
2022/07/01 00:50:45;;;;;;;1.33;0.60;;;15.10;99.90;;;;;;4899141;29;20052;-72
2022/07/01 00:53:13;;;;;;;1.33;0.63;;;15.10;99.90;;;;;;4898244;29;20131;-72
2022/07/01 00:55:39;;;;;;;2.40;0.52;;;15.10;99.90;;;;;;4899257;29;20055;-72
2022/07/01 00:58:06;;;;;;;1.10;0.60;;;15.10;99.90;;;;;;4899348;29;20059;-72
2022/07/01 01:00:32;;;;;;;1.00;0.50;;;15.10;99.90;;;;;;4899044;29;20049;-72
2022/07/01 01:02:58;;;;;;;1.70;0.50;;;15.10;99.90;;;;;;4898941;29;20543;-73
2022/07/01 01:05:25;;;;;;;3.95;0.55;;;15.20;99.90;;;;;;4898918;29;20079;-72
2022/07/01 01:07:51;;;;;;;2.50;0.70;;;15.20;99.90;;;;;;4898954;29;20056;-73
2022/07/01 01:10:23;;;;;;;2.75;0.60;;;15.20;99.90;;;;;;4898770;29;20115;-70
2022/07/01 01:12:49;;;;;;;2.20;0.52;;;15.30;99.90;;;;;;4882141;29;20508;-72
2022/07/01 01:15:19;;;;;;;2.90;0.70;;;15.30;99.90;;;;;;4898695;29;20052;-73
2022/07/01 01:17:46;;;;;;;3.38;0.80;;;15.30;99.90;;;;;;4898569;29;20052;-73
2022/07/01 01:20:18;;;;;;;1.95;0.60;;;15.30;99.90;;;;;;4896615;29;20462;-73
2022/07/01 01:22:45;;;;;;;4.00;0.60;;;15.20;99.90;;;;;;4913211;29;20135;-70
2022/07/01 01:25:11;;;;;;;1.55;0.60;;;15.20;99.90;;;;;;4898670;29;20048;-73
2022/07/01 01:27:37;;;;;;;3.90;0.60;;;15.20;99.90;;;;;;4898413;29;20052;-72
2022/07/01 01:30:06;;;;;;;1.75;0.50;;;15.20;99.90;;;;;;4898593;29;20550;-71
2022/07/01 01:32:32;;;;;;;2.50;0.50;;;15.20;99.90;;;;;;4898208;29;20139;-71
2022/07/01 01:34:58;;;;;;;1.80;0.60;;;15.20;99.90;;;;;;4898510;29;20109;-70
2022/07/01 01:37:24;;;;;;;1.60;0.60;;;15.20;99.90;;;;;;4898582;29;20413;-70
2022/07/01 01:39:49;;;;;;;1.52;0.60;;;15.20;99.90;;;;;;4898627;29;20050;-70
2022/07/01 01:42:15;;;;;;;2.15;0.57;;;15.20;99.90;;;;;;4897190;29;20044;-71
2022/07/01 01:44:41;;;;;;;1.05;0.63;;;15.20;99.90;;;;;;4898273;29;20400;-71
2022/07/01 01:47:07;;;;;;;1.42;0.50;;;15.20;99.90;;;;;;4898474;29;20053;-70
2022/07/01 01:49:33;;;;;;;0.47;0.40;;;15.20;99.90;;;;;;4897642;29;20501;-71
2022/07/01 01:51:59;;;;;;;1.92;0.50;;;15.20;99.90;;;;;;4898137;29;20513;-70
2022/07/01 01:54:26;;;;;;;1.52;0.40;;;15.20;99.90;;;;;;4897285;29;20055;-70
2022/07/01 01:56:51;;;;;;;2.55;0.50;;;15.30;99.90;;;;;;4897094;29;20059;-71
2022/07/01 01:59:17;;;;;;;1.25;0.50;;;15.30;99.90;;;;;;4897067;29;20512;-70
2022/07/01 02:01:43;;;;;;;1.75;0.40;;;15.30;99.90;;;;;;4898145;29;20552;-70
2022/07/01 02:04:09;;;;;;;1.25;0.50;;;15.30;99.90;;;;;;4898121;29;20185;-69
2022/07/01 02:06:36;;;;;;;2.15;0.93;;;15.30;99.90;;;;;;4898095;29;20502;-71
2022/07/01 02:09:01;;;;;;;1.48;0.50;;;15.30;99.90;;;;;;4898054;29;20489;-70
2022/07/01 02:11:27;;;;;;;1.52;0.43;;;15.40;99.90;;;;;;4898240;29;20051;-70
2022/07/01 02:13:53;;;;;;;1.50;0.50;;;15.40;99.90;;;;;;4896870;29;20097;-71
2022/07/01 02:16:19;;;;;;;3.42;0.98;;;15.40;99.90;;;;;;4897997;29;20052;-70
2022/07/01 02:18:44;;;;;;;1.67;0.50;;;15.40;99.90;;;;;;4896608;29;20088;-70
2022/07/01 02:21:10;;;;;;;2.58;0.60;;;15.40;99.90;;;;;;4898227;29;20060;-70
2022/07/01 02:23:36;;;;;;;2.28;0.60;;;15.40;99.90;;;;;;4912664;29;20056;-70
2022/07/01 02:26:02;;;;;;;1.85;0.50;;;15.40;99.90;;;;;;4901929;29;20049;-69
2022/07/01 02:28:28;;;;;;;1.60;0.57;;;15.40;99.90;;;;;;4900762;29;20048;-70
2022/07/01 02:30:53;;;;;;;1.20;0.50;;;15.40;99.90;;;;;;4901478;29;20061;-70
2022/07/01 02:33:19;;;;;;;1.10;0.50;;;15.40;99.90;;;;;;4901980;29;20123;-69
2022/07/01 02:35:45;;;;;;;1.60;0.60;;;15.50;99.90;;;;;;4901585;29;20056;-70
2022/07/01 02:38:10;;;;;;;2.08;0.57;;;15.50;99.90;;;;;;4901654;29;20056;-70
2022/07/01 02:40:39;;;;;;;2.47;0.50;;;15.50;99.90;;;;;;4884882;29;20040;-70
2022/07/01 02:43:08;;;;;;;0.70;0.40;;;15.50;99.90;;;;;;4901390;29;20056;-70
2022/07/01 02:45:34;;;;;;;0.77;0.47;;;15.40;99.90;;;;;;4901565;29;20084;-70
2022/07/01 02:48:01;;;;;;;0.88;0.50;;;15.40;99.90;;;;;;4901470;29;20092;-69
2022/07/01 02:50:28;;;;;;;0.77;0.47;;;15.40;99.90;;;;;;4900889;29;20379;-70
2022/07/01 02:52:54;;;;;;;0.98;0.40;;;15.30;99.90;;;;;;4900415;29;20049;-70
2022/07/01 02:55:19;;;;;;;2.33;0.50;;;15.40;99.90;;;;;;4901209;29;20044;-71
2022/07/01 02:57:45;;;;;;;1.13;0.60;;;15.40;99.90;;;;;;4901115;29;20149;-70
2022/07/01 03:00:13;;;;;;;2.25;0.50;;;15.30;99.90;;;;;;4901311;29;20049;-69
2022/07/01 03:02:39;;;;;;;0.77;0.43;;;15.30;99.90;;;;;;4915910;29;20132;-70
2022/07/01 03:05:06;;;;;;;1.10;0.50;;;15.30;99.90;;;;;;4900314;29;20068;-70
2022/07/01 03:07:31;;;;;;;0.88;0.68;;;15.30;99.90;;;;;;4901050;29;20048;-70
2022/07/01 03:09:57;;;;;;;1.23;0.60;;;15.30;99.90;;;;;;4900901;29;20097;-70
2022/07/01 03:12:27;;;;;;;0.90;0.63;;;15.30;99.90;;;;;;4900875;29;20048;-70
2022/07/01 03:14:53;;;;;;;1.27;0.70;;;15.30;99.90;;;;;;4901116;29;20056;-70
2022/07/01 03:17:19;;;;;;;1.40;0.70;;;15.30;99.90;;;;;;4915738;29;20052;-70
2022/07/01 03:19:45;;;;;;;1.02;0.60;;;15.20;99.90;;;;;;4898976;29;20064;-70
2022/07/01 03:22:11;;;;;;;0.93;0.80;;;15.30;99.90;;;;;;4899870;29;20136;-70
2022/07/01 03:24:37;;;;;;;0.98;0.73;;;15.20;99.90;;;;;;4899762;29;20052;-69
2022/07/01 03:27:03;;;;;;;2.33;0.60;;;15.20;99.90;;;;;;4899325;29;20485;-69
2022/07/01 03:29:29;;;;;;;1.00;0.70;;;15.20;99.90;;;;;;4900099;29;20052;-70
2022/07/01 03:31:55;;;;;;;1.25;0.68;;;15.20;99.90;;;;;;4899846;29;20060;-69
2022/07/01 03:34:21;;;;;;;3.10;0.90;;;15.20;99.90;;;;;;4900729;29;20119;-69
2022/07/01 03:36:47;;;;;;;1.88;0.77;;;15.20;99.90;;;;;;4898982;29;20060;-70
2022/07/01 03:39:13;;;;;;;2.85;0.70;;;15.10;99.90;;;;;;4900548;29;20049;-69
2022/07/01 03:41:39;;;;;;;3.20;0.82;;;15.10;99.90;;;;;;4914888;29;20048;-70
2022/07/01 03:44:05;;;;;;;2.42;0.80;;;15.10;99.90;;;;;;4900281;29;20056;-70
2022/07/01 03:46:32;;;;;;;1.13;0.80;;;15.10;99.90;;;;;;4899877;29;20059;-69
2022/07/01 03:49:01;;;;;;;1.33;0.80;;;15.10;99.90;;;;;;4899847;29;20103;-69
2022/07/01 03:51:27;;;;;;;2.70;1.00;;;15.10;99.90;;;;;;4900370;29;20486;-69
2022/07/01 03:56:37;;;;;;;2.28;0.93;;;15.20;99.90;;;;;;4900532;29;20103;-69
2022/07/01 03:59:02;;;;;;;0.88;0.63;;;15.10;99.90;;;;;;4899196;29;20084;-69
2022/07/01 04:01:28;;;;;;;3.47;0.70;;;15.10;99.90;;;;;;4900186;29;20096;-69
2022/07/01 04:03:54;;;;;;;2.20;0.80;;;15.10;99.90;;;;;;4896868;29;20048;-70
2022/07/01 04:06:20;;;;;;;1.27;0.80;;;15.10;99.90;;;;;;4900156;29;20053;-65
2022/07/01 04:08:47;;;;;;;3.60;0.80;;;15.20;99.90;;;;;;4899949;29;20124;-65
2022/07/01 04:11:13;;;;;;;2.33;0.93;;;15.20;99.90;;;;;;4900234;29;20049;-65
2022/07/01 04:13:39;;;;;;;1.88;0.90;;;15.20;99.90;;;;;;4900211;29;20056;-65
2022/07/01 04:16:05;;;;;;;4.20;1.15;;;15.20;99.90;;;;;;4899926;29;20119;-65
2022/07/01 04:18:32;;;;;;;2.40;1.02;;;15.20;99.90;;;;;;4899246;29;20378;-66
2022/07/01 04:23:43;;;;;;;1.80;0.90;;;15.30;99.90;;;;;;4899924;29;20059;-65
2022/07/01 04:26:09;;;;;;;2.83;1.00;;;15.30;99.90;;;;;;4899933;29;20052;-65
2022/07/01 04:28:34;;;;;;;2.50;1.02;;;15.30;99.90;;;;;;4899814;29;20149;-65
2022/07/01 04:31:00;;;;;;;2.05;1.00;;;15.30;99.90;;;;;;4899629;29;20549;-65
2022/07/01 04:33:26;;;;;;;1.17;0.85;;;15.30;99.90;;;;;;4899673;29;20481;-65
2022/07/01 04:35:52;;;;;;;4.65;1.30;;;15.30;99.90;;;;;;4913885;29;20144;-65
2022/07/01 04:38:17;;;;;;;2.53;1.15;;;15.30;99.90;;;;;;4899752;29;20242;-65
2022/07/01 04:41:58;;;;;;;4.38;1.50;;;15.40;99.90;;;;;;4899696;29;20037;-65
2022/07/01 04:43:29;;;;;;;3.10;1.40;;;15.40;99.90;;;;;;4898280;29;20390;-65
2022/07/01 04:45:55;;;;;;;3.83;1.38;;;15.40;99.90;;;;;;4899387;29;20072;-65
2022/07/01 04:48:21;;;;;;;3.03;1.23;;;15.50;99.90;;;;;;4897424;29;20056;-65
2022/07/01 04:50:47;;;;;;;3.63;1.90;;;15.50;99.90;;;;;;4897652;29;20040;-65
2022/07/01 04:53:13;;;;;;;3.90;1.92;;;15.50;99.90;;;;;;4899446;29;20104;-65
2022/07/01 04:55:39;;;;;;;3.28;2.08;;;15.50;99.90;;;;;;4899331;29;20136;-65
2022/07/01 04:58:05;;;;;;;3.47;2.47;;;15.50;99.90;;;;;;4899042;29;20087;-65
2022/07/01 05:00:31;;;;;;;5.55;3.00;;;15.50;99.90;;;;;;4913818;29;20055;-65
2022/07/01 05:02:56;;;;;;;4.30;3.38;;;15.50;99.90;;;;;;4898871;29;20049;-66
2022/07/01 05:05:22;;;;;;;6.32;4.05;;;15.50;99.90;;;;;;4899115;29;20390;-65
2022/07/01 05:07:48;;;;;;;5.70;4.03;;;15.50;99.90;;;;;;4899044;29;20067;-65
2022/07/01 05:10:13;;;;;;;6.13;4.82;;;15.50;99.90;;;;;;4898814;29;20104;-65
2022/07/01 05:12:39;;;;;;;8.20;5.35;;;15.50;99.90;;;;;;4899097;29;20465;-65
2022/07/01 05:15:06;;;;;;;8.18;5.47;;;15.50;99.90;;;;;;4898865;29;20068;-65
2022/07/01 05:23:09;;;;;;;10.23;6.45;;;15.50;99.90;;;;;;4898948;29;20063;-65
2022/07/01 05:25:35;;;;;;;11.57;6.97;;;15.50;99.90;;;;;;4897611;29;20127;-65
2022/07/01 05:28:00;;;;;;;11.48;7.75;;;15.50;99.90;;;;;;4912973;29;20045;-65
2022/07/01 05:30:26;;;;;;;10.30;7.53;;;15.50;99.90;;;;;;4898664;29;20055;-66
2022/07/01 05:32:52;;;;;;;11.73;8.48;;;15.50;99.90;;;;;;4897402;29;20466;-65
2022/07/01 05:35:17;;;;;;;10.85;8.70;;;15.60;99.90;;;;;;4897755;29;20112;-66
2022/07/01 05:37:43;;;;;;;12.00;9.02;;;15.50;99.90;;;;;;4898583;29;20472;-66
2022/07/01 05:40:09;;;;;;;14.32;9.52;;;15.50;99.90;;;;;;4897198;29;20041;-65
2022/07/01 05:42:35;;;;;;;14.80;9.85;;;15.60;99.90;;;;;;4898243;29;20048;-66
2022/07/01 05:45:01;;;;;;;15.98;10.70;;;15.50;99.90;;;;;;4898486;29;20131;-66
2022/07/01 05:47:26;;;;;;;15.18;10.40;;;15.60;99.90;;;;;;4913057;29;20048;-65
2022/07/01 05:49:52;;;;;;;13.88;10.07;;;15.60;99.90;;;;;;4897960;29;20044;-66
2022/07/01 05:52:18;;;;;;;14.20;10.55;;;15.60;99.90;;;;;;4897525;29;20041;-65
2022/07/01 05:54:43;;;;;;;17.13;12.18;;;15.70;99.90;;;;;;4912781;29;20044;-66
2022/07/01 05:57:09;;;;;;;18.58;11.70;;;15.70;99.90;;;;;;4898091;29;20144;-66
2022/07/01 05:59:35;;;;;;;18.45;11.45;;;15.70;99.90;;;;;;4898238;29;20053;-66
2022/07/01 06:02:01;;;;;;;19.20;12.38;;;15.70;99.90;;;;;;4898101;29;20409;-65
2022/07/01 06:04:27;;;;;;;16.52;11.75;;;15.70;99.90;;;;;;4897454;29;20398;-65
2022/07/01 06:06:52;;;;;;;15.25;11.70;;;15.70;99.90;;;;;;4898119;29;20052;-65
2022/07/01 06:09:18;;;;;;;18.98;12.38;;;15.70;99.90;;;;;;4897998;29;20470;-65
2022/07/01 06:11:45;;;;;;;17.30;12.60;;;15.70;99.90;;;;;;4897873;29;20084;-66
2022/07/01 06:14:11;;;;;;;18.38;12.02;;;15.70;99.90;;;;;;4912896;29;20057;-65
2022/07/01 06:16:37;;;;;;;18.15;12.88;;;15.70;99.90;;;;;;4897261;29;20052;-65
2022/07/01 06:19:04;;;;;;;18.70;12.38;;;15.70;99.90;;;;;;4897608;29;20049;-65
2022/07/01 06:21:30;;;;;;;18.08;12.05;;;15.80;99.90;;;;;;4898228;29;20400;-65
2022/07/01 06:23:56;;;;;;;19.15;12.68;;;15.80;99.90;;;;;;4897942;29;20132;-65
2022/07/01 06:26:22;;;;;;;16.58;12.30;;;15.80;99.90;;;;;;4897724;29;20055;-66
2022/07/01 06:28:48;;;;;;;18.20;12.95;;;15.80;99.90;;;;;;4897949;29;20080;-65
2022/07/01 06:31:13;;;;;;;19.65;12.68;;;15.90;99.90;;;;;;4897012;29;20048;-65
2022/07/01 06:33:39;;;;;;;18.92;13.35;;;15.80;99.90;;;;;;4912418;29;20140;-65
2022/07/01 06:36:05;;;;;;;20.42;13.65;;;15.90;99.90;;;;;;4912613;29;20096;-65
2022/07/01 06:38:31;;;;;;;21.02;13.98;;;15.90;99.90;;;;;;4912595;29;20060;-65
2022/07/01 06:43:41;;;;;;;19.55;14.13;;;15.90;99.90;;;;;;4896727;29;20088;-66
2022/07/01 06:46:06;;;;;;;20.13;14.65;;;15.90;99.90;;;;;;4896858;29;20094;-65
2022/07/01 06:48:32;;;;;;;18.27;13.93;;;15.90;99.90;;;;;;4898000;29;20060;-65
2022/07/01 06:50:58;;;;;;;19.02;14.05;;;16.00;99.90;;;;;;4897198;29;20044;-65
2022/07/01 06:53:24;;;;;;;22.25;15.68;;;16.00;99.90;;;;;;4897603;29;20048;-65
2022/07/01 06:55:49;;;;;;;20.20;14.52;;;16.00;99.90;;;;;;4897572;29;20045;-65
2022/07/01 06:58:15;;;;;;;22.42;15.63;;;16.10;99.90;;;;;;4897842;29;20527;-65
2022/07/01 07:00:41;;;;;;;20.02;15.52;;;16.10;99.90;;;;;;4897521;29;20044;-65
2022/07/01 07:03:07;;;;;;;19.38;13.85;;;16.10;99.90;;;;;;4895967;29;20048;-66
2022/07/01 07:05:33;;;;;;;22.60;14.43;;;16.10;99.90;;;;;;4894587;29;20480;-66
2022/07/01 07:07:58;;;;;;;19.40;13.65;;;16.10;99.90;;;;;;4897570;29;20508;-66
2022/07/01 07:10:24;;;;;;;21.38;14.57;;;16.10;99.90;;;;;;4897367;29;20045;-65
2022/07/01 07:12:50;;;;;;;20.20;14.32;;;16.10;99.90;;;;;;4901046;29;20493;-65
2022/07/01 07:15:16;;;;;;;19.67;14.45;;;16.20;99.90;;;;;;4892565;29;20084;-66
2022/07/01 07:17:42;;;;;;;17.20;12.50;;;16.20;99.90;;;;;;4893982;29;20048;-65
2022/07/01 07:20:08;;;;;;;18.70;12.40;;;16.30;99.90;;;;;;4914387;29;20068;-66
2022/07/01 07:22:33;;;;;;;17.92;13.30;;;16.30;99.90;;;;;;4899614;29;20053;-68
2022/07/01 07:24:59;;;;;;;18.73;11.75;;;16.30;99.90;;;;;;4893317;29;20075;-66
2022/07/01 07:27:25;;;;;;;23.45;13.50;;;16.40;99.90;;;;;;4907945;29;20056;-66
2022/07/01 07:29:51;;;;;;;17.60;12.35;;;16.40;99.90;;;;;;4888983;29;20101;-66
2022/07/01 07:32:17;;;;;;;15.95;11.85;;;16.50;99.90;;;;;;4894431;29;20080;-66
2022/07/01 07:34:43;;;;;;;16.73;13.13;;;16.50;99.90;;;;;;4894777;29;20041;-66
2022/07/01 07:37:08;;;;;;;16.67;13.07;;;16.60;99.90;;;;;;4892572;29;20059;-67
2022/07/01 07:39:34;;;;;;;17.65;12.90;;;16.60;99.90;;;;;;4903066;29;20053;-67
2022/07/01 07:42:00;;;;;;;17.27;13.38;;;16.70;99.90;;;;;;4867528;29;20155;-66
2022/07/01 07:44:26;;;;;;;15.00;11.75;;;16.80;99.90;;;;;;4883573;29;20045;-66
2022/07/01 07:46:52;;;;;;;15.77;12.00;;;16.70;99.90;;;;;;4898841;29;20067;-66
2022/07/01 07:49:18;;;;;;;15.95;10.85;;;16.80;99.90;;;;;;4899880;29;20048;-66
2022/07/01 07:51:44;;;;;;;14.90;11.68;;;16.70;99.90;;;;;;4900356;29;20052;-66
2022/07/01 07:54:09;;;;;;;15.77;11.55;;;16.80;99.90;;;;;;4899153;29;20060;-66
2022/07/01 07:56:35;;;;;;;14.38;12.77;;;16.80;99.90;;;;;;4899784;29;20052;-66
2022/07/01 07:59:01;;;;;;;15.60;13.13;;;16.80;99.90;;;;;;4900470;29;20118;-65
2022/07/01 08:01:26;;;;;;;17.52;13.15;;;16.80;99.90;;;;;;4897562;29;20036;-66
2022/07/01 08:03:52;;;;;;;16.60;13.30;;;16.80;99.90;;;;;;4894145;29;20068;-66
2022/07/01 08:06:18;;;;;;;15.32;12.30;;;16.80;99.90;;;;;;4878936;29;20412;-67
2022/07/01 08:08:45;;;;;;;17.17;13.38;;;16.80;99.90;;;;;;4894665;29;20056;-66
2022/07/01 08:11:11;;;;;;;15.95;12.80;;;16.80;99.90;;;;;;4899958;29;20055;-67
2022/07/01 08:13:36;;;;;;;18.42;13.82;;;16.80;99.90;;;;;;4900044;29;20044;-66
2022/07/01 08:16:03;;;;;;;15.68;13.30;;;16.80;99.90;;;;;;4899744;29;20404;-66
2022/07/01 08:18:29;;;;;;;14.98;11.65;;;16.80;99.90;;;;;;4899653;29;20071;-67
2022/07/01 08:20:55;;;;;;;17.02;11.98;;;16.90;99.90;;;;;;4899375;29;20131;-66
2022/07/01 08:23:22;;;;;;;16.15;12.20;;;16.90;99.90;;;;;;4899457;29;20063;-70
2022/07/01 08:25:49;;;;;;;13.75;11.02;;;16.90;99.90;;;;;;4899959;29;20044;-71
2022/07/01 08:28:15;;;;;;;15.70;12.82;;;17.00;99.90;;;;;;4914368;29;20151;-71
2022/07/01 08:30:41;;;;;;;17.60;13.07;;;17.00;99.90;;;;;;4899619;29;20505;-70
2022/07/01 08:33:07;;;;;;;16.10;12.70;;;17.10;99.90;;;;;;4899419;29;20099;-70
2022/07/01 08:35:33;;;;;;;15.82;12.95;;;17.10;99.90;;;;;;4899521;29;20071;-70
2022/07/01 08:37:59;;;;;;;13.60;11.32;;;17.20;99.90;;;;;;4893789;29;20064;-72
2022/07/01 08:40:26;;;;;;;16.10;12.13;;;17.20;99.90;;;;;;4888540;29;20036;-72
2022/07/01 08:42:58;;;;;;;15.57;11.55;;;17.30;99.90;;;;;;4884645;29;20060;-71
2022/07/01 08:45:26;;;;;;;15.82;11.63;;;17.30;99.90;;;;;;4886993;29;20049;-70
2022/07/01 08:47:57;;;;;;;15.65;12.32;;;17.20;99.90;;;;;;4889789;29;20417;-70
2022/07/01 08:50:24;;;;;;;13.02;10.85;;;17.20;99.90;;;;;;4887997;29;20044;-71
2022/07/01 08:52:49;;;;;;;12.77;10.38;;;17.20;99.90;;;;;;4901751;29;20417;-70
2022/07/01 08:55:15;;;;;;;11.75;10.20;;;17.20;99.90;;;;;;4889222;29;20048;-72
2022/07/01 08:57:41;;;;;;;13.77;11.90;;;17.30;99.90;;;;;;4889037;29;20052;-72
2022/07/01 09:00:08;;;;;;;13.38;11.07;;;17.30;99.90;;;;;;4889070;29;20124;-70
2022/07/01 09:02:56;;;;;;;14.70;11.45;;;17.30;99.90;;;;;;4904727;29;20123;-70
2022/07/01 09:05:23;;;;;;;14.65;11.27;;;17.30;99.90;;;;;;4888466;29;20121;-70
2022/07/01 09:07:55;;;;;;;11.77;10.07;;;17.40;99.90;;;;;;4891006;29;20058;-70
2022/07/01 09:10:21;;;;;;;12.43;10.15;;;17.40;99.90;;;;;;4886579;29;20080;-71
2022/07/01 09:12:47;;;;;;;12.68;9.43;;;17.40;99.90;;;;;;4888552;29;20106;-71
2022/07/01 09:15:26;;;;;;;10.32;9.05;;;17.40;99.90;;;;;;4890813;29;20393;-70
2022/07/01 09:18:13;;;;;;;10.88;8.10;;;17.50;99.90;;;;;;4888411;29;20120;-71
2022/07/01 09:20:42;;;;;;;13.75;9.02;;;17.60;99.90;;;;;;4887173;29;20147;-71
2022/07/01 09:23:10;;;;;;;11.15;9.38;;;17.70;99.90;;;;;;4889996;29;20573;-70
2022/07/01 09:25:44;;;;;;;12.13;9.00;;;17.70;99.90;;;;;;4887716;29;20396;-70
2022/07/01 09:28:15;;;;;;;10.40;8.85;;;17.80;99.90;;;;;;4890252;29;20063;-70
2022/07/01 09:30:46;;;;;;;11.75;8.05;;;17.80;99.90;;;;;;4888837;29;20088;-72
2022/07/01 09:33:13;;;;;;;11.82;8.25;;;17.90;99.90;;;;;;4885796;29;20402;-70
2022/07/01 09:35:40;;;;;;;9.02;6.63;;;17.90;99.90;;;;;;4889976;29;20148;-71
2022/07/01 09:38:07;;;;;;;10.15;6.80;;;17.90;99.90;;;;;;4890107;29;20048;-69
2022/07/01 09:40:59;;;;;;;6.97;5.20;;;18.00;99.90;;;;;;4887503;29;20467;-71
2022/07/01 09:43:27;;;;;;;7.00;6.30;;;18.10;99.90;;;;;;4887302;29;20165;-71
2022/07/01 09:46:06;;;;;;;9.07;7.05;;;18.10;99.90;;;;;;4885689;29;20053;-70
2022/07/01 09:48:32;;;;;;;9.50;6.32;;;18.20;99.90;;;;;;4886609;29;20094;-71
2022/07/01 09:50:58;;;;;;;9.63;6.35;;;18.30;99.90;;;;;;4886077;29;20084;-71
2022/07/01 09:53:24;;;;;;;8.48;6.28;;;18.40;99.90;;;;;;4901989;29;20067;-70
2022/07/01 09:55:50;;;;;;;11.15;6.82;;;18.40;99.90;;;;;;4889551;29;20053;-70
2022/07/01 09:58:16;;;;;;;8.80;6.55;;;18.40;99.90;;;;;;4886728;29;20180;-71
2022/07/01 10:00:43;;;;;;;9.30;6.80;;;18.40;99.90;;;;;;4889748;29;20139;-71
2022/07/01 10:03:09;;;;;;;6.43;5.70;;;18.40;99.90;;;;;;4886468;29;20160;-70
2022/07/01 10:05:54;;;;;;;7.53;4.68;;;18.40;99.90;;;;;;4886336;29;20063;-70
2022/07/01 10:08:48;;;;;;;6.55;4.60;;;18.50;99.90;;;;;;4884229;29;20067;-72
2022/07/01 10:11:22;;;;;;;6.28;3.20;;;18.50;99.90;;;;;;4890525;29;20544;-72
2022/07/01 10:13:48;;;;;;;4.75;3.22;;;18.50;99.90;;;;;;4888419;29;20052;-71
2022/07/01 10:16:16;;;;;;;4.75;4.25;;;18.50;99.90;;;;;;4882724;29;20056;-72
2022/07/01 10:18:42;;;;;;;7.45;4.95;;;18.60;99.90;;;;;;4900106;29;20062;-71
2022/07/01 10:21:08;;;;;;;8.23;5.68;;;18.60;99.90;;;;;;4887256;29;20128;-71
2022/07/01 10:23:42;;;;;;;6.63;5.05;;;18.70;99.90;;;;;;4884622;29;20068;-71
2022/07/01 10:26:10;;;;;;;6.45;5.80;;;18.70;99.90;;;;;;4884867;29;20315;-71
2022/07/01 10:28:43;;;;;;;6.63;5.65;;;18.70;99.90;;;;;;4885997;29;20052;-71
2022/07/01 10:31:16;;;;;;;7.10;5.22;;;18.70;99.90;;;;;;4887365;29;20056;-71
2022/07/01 10:33:53;;;;;;;10.07;6.53;;;18.70;99.90;;;;;;4884317;29;20128;-71
2022/07/01 10:36:21;;;;;;;9.25;6.43;;;18.70;99.90;;;;;;4888224;29;20052;-70
2022/07/01 10:39:09;;;;;;;9.43;6.18;;;18.70;99.90;;;;;;4885167;29;20044;-71
2022/07/01 10:41:39;;;;;;;8.15;6.10;;;18.70;99.90;;;;;;4884065;29;20498;-71
2022/07/01 10:44:07;;;;;;;6.15;5.22;;;18.80;99.90;;;;;;4887190;29;20048;-72
2022/07/01 10:46:46;;;;;;;6.35;4.97;;;18.80;99.90;;;;;;4888703;29;20128;-70
2022/07/01 10:49:15;;;;;;;5.95;4.13;;;18.90;99.90;;;;;;4884931;29;20044;-71
2022/07/01 10:51:57;;;;;;;6.35;4.60;;;18.90;99.90;;;;;;4886504;29;20060;-70
2022/07/01 10:54:39;;;;;;;6.95;4.53;;;18.90;99.90;;;;;;4888410;29;20045;-71
2022/07/01 10:57:17;;;;;;;8.73;4.30;;;19.00;99.90;;;;;;4884507;29;20067;-70
2022/07/01 10:59:51;;;;;;;3.13;2.75;;;19.10;99.90;;;;;;4888412;29;20095;-71
2022/07/01 11:02:25;;;;;;;6.47;2.88;;;19.20;99.90;;;;;;4887456;29;20518;-71
2022/07/01 11:04:54;;;;;;;4.10;3.15;;;19.20;99.90;;;;;;4887623;29;20056;-71
2022/07/01 11:07:20;;;;;;;4.10;3.08;;;19.20;99.90;;;;;;4887885;29;20055;-70
2022/07/01 11:09:46;;;;;;;5.70;3.30;;;19.10;99.90;;;;;;4885721;29;20071;-70
2022/07/01 11:12:15;;;;;;;6.88;3.80;;;19.10;99.90;;;;;;4888592;29;20603;-70
2022/07/01 11:14:41;;;;;;;7.45;4.05;;;19.10;99.90;;;;;;4903286;29;20055;-71
2022/07/01 11:17:08;;;;;;;7.47;4.22;;;19.10;99.90;;;;;;4888414;29;20124;-70
2022/07/01 11:19:34;;;;;;;6.35;4.30;;;19.10;99.90;;;;;;4888284;29;20509;-71
2022/07/01 11:22:02;;;;;;;6.57;4.00;;;19.10;99.90;;;;;;4887527;29;20056;-70
2022/07/01 11:24:28;;;;;;;6.38;3.83;;;19.10;99.90;;;;;;4885632;29;20052;-71
2022/07/01 11:27:06;;;;;;;7.63;4.80;;;19.20;99.90;;;;;;4888844;29;20060;-70
2022/07/01 11:29:32;;;;;;;6.35;4.95;;;19.20;99.90;;;;;;4889108;29;20040;-71
2022/07/01 11:31:58;;;;;;;5.45;3.90;;;19.20;99.90;;;;;;4885561;29;20076;-71
2022/07/01 11:34:27;;;;;;;4.85;4.07;;;19.20;99.90;;;;;;4901906;29;20037;-71
2022/07/01 11:39:41;;;;;;;5.10;3.33;;;19.40;99.90;;;;;;4888608;29;20174;-71
2022/07/01 11:42:07;;;;;;;6.55;2.63;;;19.50;99.90;;;;;;4884049;29;20060;-72
2022/07/01 11:44:36;;;;;;;3.63;2.70;;;19.60;99.90;;;;;;4884556;29;20499;-72
2022/07/01 11:47:23;;;;;;;3.45;2.95;;;19.70;99.90;;;;;;4880574;29;20423;-71
2022/07/01 11:49:49;;;;;;;7.00;3.25;;;19.70;99.90;;;;;;4879057;29;20690;-71
2022/07/01 11:52:17;;;;;;;7.25;2.65;;;19.80;99.90;;;;;;4887457;29;20037;-71
2022/07/01 11:54:49;;;;;;;6.45;3.42;;;19.80;99.90;;;;;;4888435;29;20091;-71
2022/07/01 11:57:17;;;;;;;4.45;3.20;;;19.80;99.90;;;;;;4885234;29;20159;-71
2022/07/01 11:59:45;;;;;;;4.53;3.35;;;19.80;99.90;;;;;;4882255;29;20048;-71
2022/07/01 12:02:12;;;;;;;7.28;3.13;;;19.90;99.90;;;;;;4885162;29;20053;-71
2022/07/01 12:04:39;;;;;;;3.95;2.20;;;19.90;99.90;;;;;;4887486;29;20488;-72
2022/07/01 12:07:05;;;;;;;3.20;1.88;;;19.90;99.90;;;;;;4890902;29;20074;-72
2022/07/01 12:09:31;;;;;;;3.47;1.90;;;20.00;99.90;;;;;;4885739;29;20052;-72
2022/07/01 12:11:57;;;;;;;2.95;0.80;;;20.00;99.90;;;;;;4886831;29;20048;-72
2022/07/01 12:14:31;;;;;;;3.83;0.70;;;19.90;99.90;;;;;;4888459;29;20045;-73
2022/07/01 12:17:00;;;;;;;1.25;0.50;;;19.70;99.90;;;;;;4885503;29;20267;-74
2022/07/01 12:19:32;;;;;;;1.23;0.70;;;19.50;99.90;;;;;;4886235;29;20063;-72
2022/07/01 12:21:58;;;;;;;1.27;0.40;;;19.40;99.90;;;;;;4882320;29;20059;-71
2022/07/01 12:24:24;;;;;;;2.15;0.50;;;19.30;99.90;;;;;;4886918;29;20040;-71
2022/07/01 12:26:58;;;;;;;4.07;0.85;;;19.20;99.90;;;;;;4888740;29;20152;-70
2022/07/01 12:29:25;;;;;;;2.97;0.60;;;19.20;99.90;;;;;;4885040;29;20048;-71
2022/07/01 12:31:55;;;;;;;2.25;1.05;;;19.10;99.90;;;;;;4887650;29;20059;-71
2022/07/01 12:34:20;;;;;;;2.20;1.15;;;19.10;99.90;;;;;;4889987;29;20136;-70
2022/07/01 12:36:50;;;;;;;2.90;0.88;;;19.10;99.90;;;;;;4883825;29;20139;-71
2022/07/01 12:39:16;;;;;;;2.90;0.70;;;19.10;99.90;;;;;;4886781;29;20052;-71
2022/07/01 12:41:50;;;;;;;1.40;0.80;;;19.10;99.90;;;;;;4884890;29;20085;-71
2022/07/01 12:44:28;;;;;;;1.75;0.70;;;19.10;99.90;;;;;;4884985;29;20048;-70
2022/07/01 12:46:54;;;;;;;1.77;0.70;;;19.20;99.90;;;;;;4884790;29;20382;-72
2022/07/01 12:49:25;;;;;;;0.80;0.70;;;19.20;99.90;;;;;;4890735;29;20043;-71
2022/07/01 12:51:54;;;;;;;1.23;0.70;;;19.30;99.90;;;;;;4887500;29;20049;-71
2022/07/01 12:54:34;;;;;;;3.20;0.80;;;19.30;99.90;;;;;;4886272;29;20044;-72
2022/07/01 12:57:00;;;;;;;3.20;0.80;;;19.30;99.90;;;;;;4898154;29;20051;-70
2022/07/01 12:59:26;;;;;;;1.88;0.60;;;19.30;99.90;;;;;;4890634;29;20059;-71